Maria Schulte — C4NZ2 — position and weather

sailwx.info

Track history (hours):
 
Tides and Currents Weather Stations Pressure Air Temp Water Temp Dewpoint Dewpoint Depression Visibility Wind Speed Wind Dir Waves Ship Positions

Maria Schulte

Last reported at 2017-Nov-14 20:22 UTC. Time now 2017-Nov-20 16:57 UTC.
Position N 34°00' E 134°55'.

Length 231 m; draft 9.9 m.

Type: Ship (hazmat cat A). MMSI: 210346000.

Date/timePositionNaut miles runAvg speedWind from/ knotsBaromVisibWave heightAir tempDewpointWater temp
2017-Nov-14 20:22N 34°00' E 134°55'718.3
2017-Nov-14 20:00N 34°07' E 134°57'815.6
2017-Nov-14 19:30N 34°14' E 134°58'815.7
2017-Nov-14 19:00N 34°22' E 135°00'917.6
2017-Nov-14 18:30N 34°28' E 135°08'917.6
2017-Nov-14 18:00N 34°35' E 135°15'510.7
2017-Nov-14 17:30N 34°40' E 135°14'0 0.3
2017-Nov-14 16:46N 34°40' E 135°14'0 0.0
2017-Nov-14 16:28N 34°40' E 135°14'0 0.0
2017-Nov-14 15:58N 34°40' E 135°14'0 0.0
2017-Nov-14 15:28N 34°40' E 135°14'0 0.0
2017-Nov-14 14:58N 34°40' E 135°14'0 0.0
2017-Nov-14 14:28N 34°40' E 135°14'0 0.0
2017-Nov-14 13:58N 34°40' E 135°14'0 0.0
2017-Nov-14 13:28N 34°40' E 135°14'0 0.0
2017-Nov-14 12:52N 34°40' E 135°14'0 0.0
2017-Nov-14 12:28N 34°40' E 135°14'0 0.0
2017-Nov-14 11:40N 34°40' E 135°14'0 0.0
2017-Nov-14 11:22N 34°40' E 135°14'0 0.0
2017-Nov-14 10:58N 34°40' E 135°14'0 0.0
2017-Nov-14 10:22N 34°40' E 135°14'0 0.0
2017-Nov-14 09:58N 34°40' E 135°14'0 0.0
2017-Nov-14 09:22N 34°40' E 135°14'0 0.0
2017-Nov-14 08:58N 34°40' E 135°14'0 0.0
2017-Nov-14 08:22N 34°40' E 135°14'0 0.0
2017-Nov-14 07:58N 34°40' E 135°14'0 0.0
2017-Nov-14 07:22N 34°40' E 135°14'0 0.0
2017-Nov-14 06:58N 34°40' E 135°14'0 0.0
2017-Nov-14 06:28N 34°40' E 135°14'0 0.0
2017-Nov-14 05:46N 34°40' E 135°14'0 0.0
2017-Nov-14 05:28N 34°40' E 135°14'0 1.0
2017-Nov-14 05:00N 34°40' E 135°15'4 8.3
2017-Nov-14 04:30N 34°36' E 135°17'816.4
2017-Nov-14 04:00N 34°30' E 135°11'916.9
2017-Nov-14 03:27N 34°22' E 135°04'715.4
2017-Nov-14 02:58N 34°16' E 134°59'613.9
2017-Nov-14 02:30N 34°10' E 134°60'611.9
2017-Nov-14 02:00N 34°04' E 135°00'  
2017-Nov-10 18:21N 34°53' E 139°21'615.0
2017-Nov-10 17:58N 34°56' E 139°27'715.0
2017-Nov-10 17:30N 34°60' E 139°34'815.1
2017-Nov-10 17:00N 35°05' E 139°41'714.4
2017-Nov-10 16:30N 35°11' E 139°45'510.1
2017-Nov-10 16:00N 35°16' E 139°46'713.4
2017-Nov-10 15:30N 35°22' E 139°42'816.3
2017-Nov-10 15:00N 35°28' E 139°49'612.4
2017-Nov-10 14:30N 35°34' E 139°48'2 0.1
2017-Nov-09 22:06N 35°36' E 139°47'1 5.5
2017-Nov-09 22:00N 35°36' E 139°47'5 9.4
2017-Nov-09 21:29N 35°33' E 139°52'1 2.6
2017-Nov-09 20:56N 35°32' E 139°53'0 0.1
2017-Nov-09 20:20N 35°32' E 139°53'0 0.0
2017-Nov-09 19:56N 35°32' E 139°53'0 0.2
2017-Nov-09 19:14N 35°32' E 139°53'0 0.3
2017-Nov-09 19:00N 35°32' E 139°53'3 6.5
2017-Nov-09 18:30N 35°29' E 139°52'815.2
2017-Nov-09 18:00N 35°26' E 139°43'2 4.3
2017-Nov-09 17:30N 35°26' E 139°41'0 0.5
2017-Nov-09 17:01N 35°26' E 139°41'0 0.0
2017-Nov-09 16:31N 35°26' E 139°41'0 0.0
2017-Nov-09 16:01N 35°26' E 139°41'0 0.0
2017-Nov-09 15:28N 35°26' E 139°41'0 0.0
2017-Nov-09 15:01N 35°26' E 139°41'0 0.0
2017-Nov-09 14:31N 35°26' E 139°41'0 0.0
2017-Nov-09 13:58N 35°26' E 139°41'0 0.0
2017-Nov-09 13:28N 35°26' E 139°41'0 0.0
2017-Nov-09 13:01N 35°26' E 139°41'0 0.0
2017-Nov-09 12:31N 35°26' E 139°41'0 0.0
2017-Nov-09 11:58N 35°26' E 139°41'0 0.0
2017-Nov-09 11:28N 35°26' E 139°41'0 0.0
2017-Nov-09 11:01N 35°26' E 139°41'0 0.0
2017-Nov-09 10:31N 35°26' E 139°41'0 0.0
2017-Nov-09 10:01N 35°26' E 139°41'0 0.0
2017-Nov-09 09:28N 35°26' E 139°41'0 0.0
2017-Nov-09 09:01N 35°26' E 139°41'0 0.0
2017-Nov-09 08:28N 35°26' E 139°41'0 0.0
2017-Nov-09 07:58N 35°26' E 139°41'0 0.0
2017-Nov-09 07:31N 35°26' E 139°41'0 0.0
2017-Nov-09 07:01N 35°26' E 139°41'0 0.0
2017-Nov-09 06:31N 35°26' E 139°41'0 0.0
2017-Nov-09 06:01N 35°26' E 139°41'0 0.0
2017-Nov-09 05:28N 35°26' E 139°41'0 0.0
2017-Nov-09 04:58N 35°26' E 139°41'0 0.0
2017-Nov-09 04:30N 35°26' E 139°41'1 1.7
2017-Nov-09 04:00N 35°26' E 139°42'1 2.8
2017-Nov-09 03:30N 35°25' E 139°43'4 8.4
2017-Nov-09 03:00N 35°21' E 139°43'612.2
2017-Nov-09 02:30N 35°16' E 139°47'611.4
2017-Nov-09 02:00N 35°10' E 139°47'611.3
2017-Nov-09 01:26N 35°04' E 139°44'  
Track history (hours):
 
Tides and Currents Weather Stations Pressure Air Temp Water Temp Dewpoint Dewpoint Depression Visibility Wind Speed Wind Dir Waves Ship Positions

Maria Schulte

Last reported at 2017-Nov-14 20:22 UTC. Time now 2017-Nov-20 16:57 UTC.
Position N 34°00' E 134°55'.

Length 231 m; draft 9.9 m.

Type: Ship (hazmat cat A). MMSI: 210346000.

Date/timePositionNaut miles runAvg speedWind from/ knotsBaromVisibWave heightAir tempDewpointWater temp
2017-Nov-14 20:22N 34°00' E 134°55'718.3
2017-Nov-14 20:00N 34°07' E 134°57'815.6
2017-Nov-14 19:30N 34°14' E 134°58'815.7
2017-Nov-14 19:00N 34°22' E 135°00'917.6
2017-Nov-14 18:30N 34°28' E 135°08'917.6
2017-Nov-14 18:00N 34°35' E 135°15'510.7
2017-Nov-14 17:30N 34°40' E 135°14'0 0.3
2017-Nov-14 16:46N 34°40' E 135°14'0 0.0
2017-Nov-14 16:28N 34°40' E 135°14'0 0.0
2017-Nov-14 15:58N 34°40' E 135°14'0 0.0
2017-Nov-14 15:28N 34°40' E 135°14'0 0.0
2017-Nov-14 14:58N 34°40' E 135°14'0 0.0
2017-Nov-14 14:28N 34°40' E 135°14'0 0.0
2017-Nov-14 13:58N 34°40' E 135°14'0 0.0
2017-Nov-14 13:28N 34°40' E 135°14'0 0.0
2017-Nov-14 12:52N 34°40' E 135°14'0 0.0
2017-Nov-14 12:28N 34°40' E 135°14'0 0.0
2017-Nov-14 11:40N 34°40' E 135°14'0 0.0
2017-Nov-14 11:22N 34°40' E 135°14'0 0.0
2017-Nov-14 10:58N 34°40' E 135°14'0 0.0
2017-Nov-14 10:22N 34°40' E 135°14'0 0.0
2017-Nov-14 09:58N 34°40' E 135°14'0 0.0
2017-Nov-14 09:22N 34°40' E 135°14'0 0.0
2017-Nov-14 08:58N 34°40' E 135°14'0 0.0
2017-Nov-14 08:22N 34°40' E 135°14'0 0.0
2017-Nov-14 07:58N 34°40' E 135°14'0 0.0
2017-Nov-14 07:22N 34°40' E 135°14'0 0.0
2017-Nov-14 06:58N 34°40' E 135°14'0 0.0
2017-Nov-14 06:28N 34°40' E 135°14'0 0.0
2017-Nov-14 05:46N 34°40' E 135°14'0 0.0
2017-Nov-14 05:28N 34°40' E 135°14'0 1.0
2017-Nov-14 05:00N 34°40' E 135°15'4 8.3
2017-Nov-14 04:30N 34°36' E 135°17'816.4
2017-Nov-14 04:00N 34°30' E 135°11'916.9
2017-Nov-14 03:27N 34°22' E 135°04'715.4
2017-Nov-14 02:58N 34°16' E 134°59'613.9
2017-Nov-14 02:30N 34°10' E 134°60'611.9
2017-Nov-14 02:00N 34°04' E 135°00'  
2017-Nov-10 18:21N 34°53' E 139°21'615.0
2017-Nov-10 17:58N 34°56' E 139°27'715.0
2017-Nov-10 17:30N 34°60' E 139°34'815.1
2017-Nov-10 17:00N 35°05' E 139°41'714.4
2017-Nov-10 16:30N 35°11' E 139°45'510.1
2017-Nov-10 16:00N 35°16' E 139°46'713.4
2017-Nov-10 15:30N 35°22' E 139°42'816.3
2017-Nov-10 15:00N 35°28' E 139°49'612.4
2017-Nov-10 14:30N 35°34' E 139°48'2 0.1
2017-Nov-09 22:06N 35°36' E 139°47'1 5.5
2017-Nov-09 22:00N 35°36' E 139°47'5 9.4
2017-Nov-09 21:29N 35°33' E 139°52'1 2.6
2017-Nov-09 20:56N 35°32' E 139°53'0 0.1
2017-Nov-09 20:20N 35°32' E 139°53'0 0.0
2017-Nov-09 19:56N 35°32' E 139°53'0 0.2
2017-Nov-09 19:14N 35°32' E 139°53'0 0.3
2017-Nov-09 19:00N 35°32' E 139°53'3 6.5
2017-Nov-09 18:30N 35°29' E 139°52'815.2
2017-Nov-09 18:00N 35°26' E 139°43'2 4.3
2017-Nov-09 17:30N 35°26' E 139°41'0 0.5
2017-Nov-09 17:01N 35°26' E 139°41'0 0.0
2017-Nov-09 16:31N 35°26' E 139°41'0 0.0
2017-Nov-09 16:01N 35°26' E 139°41'0 0.0
2017-Nov-09 15:28N 35°26' E 139°41'0 0.0
2017-Nov-09 15:01N 35°26' E 139°41'0 0.0
2017-Nov-09 14:31N 35°26' E 139°41'0 0.0
2017-Nov-09 13:58N 35°26' E 139°41'0 0.0
2017-Nov-09 13:28N 35°26' E 139°41'0 0.0
2017-Nov-09 13:01N 35°26' E 139°41'0 0.0
2017-Nov-09 12:31N 35°26' E 139°41'0 0.0
2017-Nov-09 11:58N 35°26' E 139°41'0 0.0
2017-Nov-09 11:28N 35°26' E 139°41'0 0.0
2017-Nov-09 11:01N 35°26' E 139°41'0 0.0
2017-Nov-09 10:31N 35°26' E 139°41'0 0.0
2017-Nov-09 10:01N 35°26' E 139°41'0 0.0
2017-Nov-09 09:28N 35°26' E 139°41'0 0.0
2017-Nov-09 09:01N 35°26' E 139°41'0 0.0
2017-Nov-09 08:28N 35°26' E 139°41'0 0.0
2017-Nov-09 07:58N 35°26' E 139°41'0 0.0
2017-Nov-09 07:31N 35°26' E 139°41'0 0.0
2017-Nov-09 07:01N 35°26' E 139°41'0 0.0
2017-Nov-09 06:31N 35°26' E 139°41'0 0.0
2017-Nov-09 06:01N 35°26' E 139°41'0 0.0
2017-Nov-09 05:28N 35°26' E 139°41'0 0.0
2017-Nov-09 04:58N 35°26' E 139°41'0 0.0
2017-Nov-09 04:30N 35°26' E 139°41'1 1.7
2017-Nov-09 04:00N 35°26' E 139°42'1 2.8
2017-Nov-09 03:30N 35°25' E 139°43'4 8.4
2017-Nov-09 03:00N 35°21' E 139°43'612.2
2017-Nov-09 02:30N 35°16' E 139°47'611.4
2017-Nov-09 02:00N 35°10' E 139°47'611.3
2017-Nov-09 01:26N 35°04' E 139°44'  

Dump ship's entire track history